sensor_id;sensor_type;location;lat;lon;timestamp;P1;durP1;ratioP1;P2;durP2;ratioP2
83404;SDS011;73331;48.168;20.776;2024-02-04T00:00:24;21.55;;;11.52;;
83404;SDS011;73331;48.168;20.776;2024-02-04T00:01:55;20.85;;;10.30;;
83404;SDS011;73331;48.168;20.776;2024-02-04T00:03:25;19.38;;;9.57;;
83404;SDS011;73331;48.168;20.776;2024-02-04T00:04:55;15.65;;;8.18;;
83404;SDS011;73331;48.168;20.776;2024-02-04T00:06:26;15.77;;;9.35;;
83404;SDS011;73331;48.168;20.776;2024-02-04T00:07:56;22.88;;;10.73;;
83404;SDS011;73331;48.168;20.776;2024-02-04T00:09:27;16.20;;;8.35;;
83404;SDS011;73331;48.168;20.776;2024-02-04T00:10:59;19.65;;;10.23;;
83404;SDS011;73331;48.168;20.776;2024-02-04T00:12:29;20.88;;;10.23;;
83404;SDS011;73331;48.168;20.776;2024-02-04T00:14:00;22.55;;;10.52;;
83404;SDS011;73331;48.168;20.776;2024-02-04T00:15:31;13.55;;;6.88;;
83404;SDS011;73331;48.168;20.776;2024-02-04T00:17:01;12.20;;;6.28;;
83404;SDS011;73331;48.168;20.776;2024-02-04T00:18:32;14.82;;;8.43;;
83404;SDS011;73331;48.168;20.776;2024-02-04T00:20:02;24.27;;;12.27;;
83404;SDS011;73331;48.168;20.776;2024-02-04T00:21:36;25.08;;;11.60;;
83404;SDS011;73331;48.168;20.776;2024-02-04T00:23:06;19.00;;;10.48;;
83404;SDS011;73331;48.168;20.776;2024-02-04T00:24:37;16.88;;;9.88;;
83404;SDS011;73331;48.168;20.776;2024-02-04T00:26:07;15.48;;;8.60;;
83404;SDS011;73331;48.168;20.776;2024-02-04T00:27:38;20.50;;;11.07;;
83404;SDS011;73331;48.168;20.776;2024-02-04T00:29:08;19.55;;;9.52;;
83404;SDS011;73331;48.168;20.776;2024-02-04T00:30:39;18.70;;;8.38;;
83404;SDS011;73331;48.168;20.776;2024-02-04T00:32:09;14.63;;;7.00;;
83404;SDS011;73331;48.168;20.776;2024-02-04T00:33:40;15.80;;;6.30;;
83404;SDS011;73331;48.168;20.776;2024-02-04T00:35:10;11.43;;;6.03;;
83404;SDS011;73331;48.168;20.776;2024-02-04T00:36:41;12.60;;;6.45;;
83404;SDS011;73331;48.168;20.776;2024-02-04T00:38:12;11.20;;;6.22;;
83404;SDS011;73331;48.168;20.776;2024-02-04T00:39:42;13.10;;;6.57;;
83404;SDS011;73331;48.168;20.776;2024-02-04T00:41:13;11.48;;;6.57;;
83404;SDS011;73331;48.168;20.776;2024-02-04T00:42:43;13.45;;;5.75;;
83404;SDS011;73331;48.168;20.776;2024-02-04T00:44:14;7.93;;;3.45;;
83404;SDS011;73331;48.168;20.776;2024-02-04T00:45:44;4.20;;;1.70;;
83404;SDS011;73331;48.168;20.776;2024-02-04T00:47:15;2.08;;;1.60;;
83404;SDS011;73331;48.168;20.776;2024-02-04T00:48:45;1.48;;;1.38;;
83404;SDS011;73331;48.168;20.776;2024-02-04T00:50:15;1.40;;;1.00;;
83404;SDS011;73331;48.168;20.776;2024-02-04T00:51:46;1.33;;;1.10;;
83404;SDS011;73331;48.168;20.776;2024-02-04T00:53:16;1.88;;;1.00;;
83404;SDS011;73331;48.168;20.776;2024-02-04T00:54:47;1.58;;;1.02;;
83404;SDS011;73331;48.168;20.776;2024-02-04T00:56:17;1.25;;;0.85;;
83404;SDS011;73331;48.168;20.776;2024-02-04T00:57:48;1.80;;;1.17;;
83404;SDS011;73331;48.168;20.776;2024-02-04T00:59:18;1.17;;;1.00;;
83404;SDS011;73331;48.168;20.776;2024-02-04T01:00:49;1.38;;;0.98;;
83404;SDS011;73331;48.168;20.776;2024-02-04T01:02:20;1.38;;;1.00;;
83404;SDS011;73331;48.168;20.776;2024-02-04T01:03:50;1.40;;;1.10;;
83404;SDS011;73331;48.168;20.776;2024-02-04T01:05:21;1.42;;;0.90;;
83404;SDS011;73331;48.168;20.776;2024-02-04T01:06:51;1.08;;;0.88;;
83404;SDS011;73331;48.168;20.776;2024-02-04T01:08:22;1.55;;;1.20;;
83404;SDS011;73331;48.168;20.776;2024-02-04T01:09:52;1.58;;;1.30;;
83404;SDS011;73331;48.168;20.776;2024-02-04T01:11:23;1.13;;;0.90;;
83404;SDS011;73331;48.168;20.776;2024-02-04T01:12:53;1.50;;;1.00;;
83404;SDS011;73331;48.168;20.776;2024-02-04T01:14:24;1.55;;;0.88;;
83404;SDS011;73331;48.168;20.776;2024-02-04T01:15:54;1.73;;;1.05;;
83404;SDS011;73331;48.168;20.776;2024-02-04T01:17:25;1.75;;;1.02;;
83404;SDS011;73331;48.168;20.776;2024-02-04T01:18:57;1.50;;;1.40;;
83404;SDS011;73331;48.168;20.776;2024-02-04T01:20:27;2.05;;;1.02;;
83404;SDS011;73331;48.168;20.776;2024-02-04T01:21:58;2.22;;;1.30;;
83404;SDS011;73331;48.168;20.776;2024-02-04T01:23:28;1.60;;;1.00;;
83404;SDS011;73331;48.168;20.776;2024-02-04T01:24:59;1.60;;;1.13;;
83404;SDS011;73331;48.168;20.776;2024-02-04T01:26:29;1.20;;;1.10;;
83404;SDS011;73331;48.168;20.776;2024-02-04T01:28:00;1.30;;;1.00;;
83404;SDS011;73331;48.168;20.776;2024-02-04T01:29:30;1.20;;;0.90;;
83404;SDS011;73331;48.168;20.776;2024-02-04T01:31:00;1.98;;;1.20;;
83404;SDS011;73331;48.168;20.776;2024-02-04T01:32:31;1.48;;;1.20;;
83404;SDS011;73331;48.168;20.776;2024-02-04T01:34:01;1.20;;;0.93;;
83404;SDS011;73331;48.168;20.776;2024-02-04T01:35:32;1.63;;;1.17;;
83404;SDS011;73331;48.168;20.776;2024-02-04T01:37:02;2.15;;;1.40;;
83404;SDS011;73331;48.168;20.776;2024-02-04T01:38:33;1.90;;;1.20;;
83404;SDS011;73331;48.168;20.776;2024-02-04T01:40:04;1.33;;;0.98;;
83404;SDS011;73331;48.168;20.776;2024-02-04T01:41:35;2.72;;;1.55;;
83404;SDS011;73331;48.168;20.776;2024-02-04T01:43:06;2.05;;;1.30;;
83404;SDS011;73331;48.168;20.776;2024-02-04T01:44:37;1.58;;;1.17;;
83404;SDS011;73331;48.168;20.776;2024-02-04T01:46:07;1.95;;;1.30;;
83404;SDS011;73331;48.168;20.776;2024-02-04T01:47:39;1.98;;;1.30;;
83404;SDS011;73331;48.168;20.776;2024-02-04T01:49:10;1.55;;;0.98;;
83404;SDS011;73331;48.168;20.776;2024-02-04T01:50:40;2.17;;;1.02;;
83404;SDS011;73331;48.168;20.776;2024-02-04T01:52:11;1.67;;;1.17;;
83404;SDS011;73331;48.168;20.776;2024-02-04T01:53:43;1.80;;;1.10;;
83404;SDS011;73331;48.168;20.776;2024-02-04T01:55:14;1.38;;;1.00;;
83404;SDS011;73331;48.168;20.776;2024-02-04T01:56:49;1.42;;;1.30;;
83404;SDS011;73331;48.168;20.776;2024-02-04T01:58:20;1.95;;;1.23;;
83404;SDS011;73331;48.168;20.776;2024-02-04T01:59:52;1.17;;;0.93;;
83404;SDS011;73331;48.168;20.776;2024-02-04T02:01:24;1.73;;;1.02;;
83404;SDS011;73331;48.168;20.776;2024-02-04T02:02:56;2.00;;;1.17;;
83404;SDS011;73331;48.168;20.776;2024-02-04T02:04:29;1.88;;;1.20;;
83404;SDS011;73331;48.168;20.776;2024-02-04T02:05:59;1.20;;;1.05;;
83404;SDS011;73331;48.168;20.776;2024-02-04T02:07:30;1.17;;;1.08;;
83404;SDS011;73331;48.168;20.776;2024-02-04T02:09:01;2.53;;;1.10;;
83404;SDS011;73331;48.168;20.776;2024-02-04T02:10:33;1.90;;;1.13;;
83404;SDS011;73331;48.168;20.776;2024-02-04T02:12:11;1.70;;;1.35;;
83404;SDS011;73331;48.168;20.776;2024-02-04T02:13:44;1.70;;;1.27;;
83404;SDS011;73331;48.168;20.776;2024-02-04T02:15:23;1.67;;;1.30;;
83404;SDS011;73331;48.168;20.776;2024-02-04T02:16:58;1.92;;;1.15;;
83404;SDS011;73331;48.168;20.776;2024-02-04T02:20:12;1.30;;;1.20;;
83404;SDS011;73331;48.168;20.776;2024-02-04T02:21:56;2.97;;;1.00;;
83404;SDS011;73331;48.168;20.776;2024-02-04T02:23:35;1.48;;;1.13;;
83404;SDS011;73331;48.168;20.776;2024-02-04T02:25:14;1.38;;;1.23;;
83404;SDS011;73331;48.168;20.776;2024-02-04T02:26:45;1.60;;;1.23;;
83404;SDS011;73331;48.168;20.776;2024-02-04T02:28:16;1.85;;;1.23;;
83404;SDS011;73331;48.168;20.776;2024-02-04T02:29:46;1.27;;;1.17;;
83404;SDS011;73331;48.168;20.776;2024-02-04T02:31:17;1.00;;;0.90;;
83404;SDS011;73331;48.168;20.776;2024-02-04T02:32:47;2.30;;;1.20;;
83404;SDS011;73331;48.168;20.776;2024-02-04T02:34:19;1.27;;;1.10;;
83404;SDS011;73331;48.168;20.776;2024-02-04T02:35:51;1.77;;;0.98;;
83404;SDS011;73331;48.168;20.776;2024-02-04T02:37:29;1.60;;;1.30;;
83404;SDS011;73331;48.168;20.776;2024-02-04T02:39:23;1.67;;;1.00;;
83404;SDS011;73331;48.168;20.776;2024-02-04T02:40:58;1.23;;;0.70;;
83404;SDS011;73331;48.168;20.776;2024-02-04T02:42:31;1.83;;;1.27;;
83404;SDS011;73331;48.168;20.776;2024-02-04T02:44:03;2.20;;;1.63;;
83404;SDS011;73331;48.168;20.776;2024-02-04T02:45:35;1.80;;;1.40;;
83404;SDS011;73331;48.168;20.776;2024-02-04T02:48:38;1.75;;;1.55;;
83404;SDS011;73331;48.168;20.776;2024-02-04T02:50:09;1.30;;;0.90;;
83404;SDS011;73331;48.168;20.776;2024-02-04T02:51:39;1.80;;;0.90;;
83404;SDS011;73331;48.168;20.776;2024-02-04T02:53:10;1.10;;;1.00;;
83404;SDS011;73331;48.168;20.776;2024-02-04T02:54:40;1.48;;;1.10;;
83404;SDS011;73331;48.168;20.776;2024-02-04T02:56:11;1.92;;;0.82;;
83404;SDS011;73331;48.168;20.776;2024-02-04T02:57:41;0.95;;;0.90;;
83404;SDS011;73331;48.168;20.776;2024-02-04T02:59:12;2.42;;;1.10;;
83404;SDS011;73331;48.168;20.776;2024-02-04T03:00:42;1.50;;;1.20;;
83404;SDS011;73331;48.168;20.776;2024-02-04T03:02:13;1.90;;;0.95;;
83404;SDS011;73331;48.168;20.776;2024-02-04T03:03:44;0.88;;;0.70;;
83404;SDS011;73331;48.168;20.776;2024-02-04T03:05:17;1.15;;;0.93;;
83404;SDS011;73331;48.168;20.776;2024-02-04T03:06:48;1.52;;;1.10;;
83404;SDS011;73331;48.168;20.776;2024-02-04T03:08:18;1.48;;;0.85;;
83404;SDS011;73331;48.168;20.776;2024-02-04T03:09:49;1.77;;;1.08;;
83404;SDS011;73331;48.168;20.776;2024-02-04T03:11:19;1.05;;;0.98;;
83404;SDS011;73331;48.168;20.776;2024-02-04T03:12:50;1.48;;;1.00;;
83404;SDS011;73331;48.168;20.776;2024-02-04T03:14:20;1.55;;;1.10;;
83404;SDS011;73331;48.168;20.776;2024-02-04T03:15:51;1.65;;;1.20;;
83404;SDS011;73331;48.168;20.776;2024-02-04T03:17:21;1.67;;;0.80;;
83404;SDS011;73331;48.168;20.776;2024-02-04T03:18:53;1.65;;;1.15;;
83404;SDS011;73331;48.168;20.776;2024-02-04T03:20:23;1.55;;;1.05;;
83404;SDS011;73331;48.168;20.776;2024-02-04T03:21:53;1.33;;;1.13;;
83404;SDS011;73331;48.168;20.776;2024-02-04T03:23:24;1.10;;;1.00;;
83404;SDS011;73331;48.168;20.776;2024-02-04T03:24:54;1.40;;;1.10;;
83404;SDS011;73331;48.168;20.776;2024-02-04T03:26:25;2.03;;;1.17;;
83404;SDS011;73331;48.168;20.776;2024-02-04T03:27:55;1.80;;;1.10;;
83404;SDS011;73331;48.168;20.776;2024-02-04T03:29:26;1.27;;;1.08;;
83404;SDS011;73331;48.168;20.776;2024-02-04T03:30:56;1.70;;;1.08;;
83404;SDS011;73331;48.168;20.776;2024-02-04T03:32:27;1.42;;;1.10;;
83404;SDS011;73331;48.168;20.776;2024-02-04T03:33:59;1.45;;;1.05;;
83404;SDS011;73331;48.168;20.776;2024-02-04T03:35:29;1.83;;;1.40;;
83404;SDS011;73331;48.168;20.776;2024-02-04T03:37:00;1.33;;;0.98;;
83404;SDS011;73331;48.168;20.776;2024-02-04T03:38:30;2.35;;;1.08;;
83404;SDS011;73331;48.168;20.776;2024-02-04T03:40:01;2.38;;;1.60;;
83404;SDS011;73331;48.168;20.776;2024-02-04T03:41:32;2.72;;;1.73;;
83404;SDS011;73331;48.168;20.776;2024-02-04T03:43:02;2.65;;;1.90;;
83404;SDS011;73331;48.168;20.776;2024-02-04T03:44:33;2.78;;;1.90;;
83404;SDS011;73331;48.168;20.776;2024-02-04T03:46:03;2.28;;;2.08;;
83404;SDS011;73331;48.168;20.776;2024-02-04T03:47:34;3.25;;;1.88;;
83404;SDS011;73331;48.168;20.776;2024-02-04T03:49:04;3.05;;;2.00;;
83404;SDS011;73331;48.168;20.776;2024-02-04T03:50:35;2.70;;;1.48;;
83404;SDS011;73331;48.168;20.776;2024-02-04T03:52:06;2.03;;;1.65;;
83404;SDS011;73331;48.168;20.776;2024-02-04T03:53:37;1.75;;;1.00;;
83404;SDS011;73331;48.168;20.776;2024-02-04T03:55:07;1.42;;;1.20;;
83404;SDS011;73331;48.168;20.776;2024-02-04T03:56:38;1.73;;;1.08;;
83404;SDS011;73331;48.168;20.776;2024-02-04T03:58:08;1.60;;;1.00;;
83404;SDS011;73331;48.168;20.776;2024-02-04T03:59:39;2.25;;;1.00;;
83404;SDS011;73331;48.168;20.776;2024-02-04T04:01:09;1.55;;;1.00;;
83404;SDS011;73331;48.168;20.776;2024-02-04T04:02:41;1.30;;;1.13;;
83404;SDS011;73331;48.168;20.776;2024-02-04T04:04:12;2.08;;;1.13;;
83404;SDS011;73331;48.168;20.776;2024-02-04T04:05:43;1.30;;;1.05;;
83404;SDS011;73331;48.168;20.776;2024-02-04T04:07:13;1.38;;;0.80;;
83404;SDS011;73331;48.168;20.776;2024-02-04T04:08:44;0.90;;;0.80;;
83404;SDS011;73331;48.168;20.776;2024-02-04T04:10:14;1.35;;;0.95;;
83404;SDS011;73331;48.168;20.776;2024-02-04T04:11:45;1.20;;;1.08;;
83404;SDS011;73331;48.168;20.776;2024-02-04T04:13:15;1.17;;;0.90;;
83404;SDS011;73331;48.168;20.776;2024-02-04T04:14:46;1.65;;;1.20;;
83404;SDS011;73331;48.168;20.776;2024-02-04T04:16:20;2.17;;;1.33;;
83404;SDS011;73331;48.168;20.776;2024-02-04T04:17:51;1.67;;;1.20;;
83404;SDS011;73331;48.168;20.776;2024-02-04T04:19:21;1.40;;;1.00;;
83404;SDS011;73331;48.168;20.776;2024-02-04T04:20:52;0.82;;;0.70;;
83404;SDS011;73331;48.168;20.776;2024-02-04T04:22:22;2.17;;;1.20;;
83404;SDS011;73331;48.168;20.776;2024-02-04T04:23:53;1.50;;;0.90;;
83404;SDS011;73331;48.168;20.776;2024-02-04T04:25:23;1.38;;;1.10;;
83404;SDS011;73331;48.168;20.776;2024-02-04T04:26:54;1.27;;;0.98;;
83404;SDS011;73331;48.168;20.776;2024-02-04T04:28:24;1.45;;;1.00;;
83404;SDS011;73331;48.168;20.776;2024-02-04T04:29:55;1.27;;;1.17;;
83404;SDS011;73331;48.168;20.776;2024-02-04T04:31:25;1.10;;;1.00;;
83404;SDS011;73331;48.168;20.776;2024-02-04T04:32:56;2.63;;;1.20;;
83404;SDS011;73331;48.168;20.776;2024-02-04T04:34:28;0.85;;;0.60;;
83404;SDS011;73331;48.168;20.776;2024-02-04T04:35:58;0.80;;;0.80;;
83404;SDS011;73331;48.168;20.776;2024-02-04T04:37:29;2.28;;;1.10;;
83404;SDS011;73331;48.168;20.776;2024-02-04T04:38:59;1.13;;;1.00;;
83404;SDS011;73331;48.168;20.776;2024-02-04T04:40:30;1.55;;;1.20;;
83404;SDS011;73331;48.168;20.776;2024-02-04T04:42:01;1.45;;;0.88;;
83404;SDS011;73331;48.168;20.776;2024-02-04T04:43:32;1.33;;;1.17;;
83404;SDS011;73331;48.168;20.776;2024-02-04T04:45:02;1.17;;;1.00;;
83404;SDS011;73331;48.168;20.776;2024-02-04T04:46:37;1.20;;;1.10;;
83404;SDS011;73331;48.168;20.776;2024-02-04T04:48:08;1.25;;;1.00;;
83404;SDS011;73331;48.168;20.776;2024-02-04T04:49:39;1.50;;;1.02;;
83404;SDS011;73331;48.168;20.776;2024-02-04T04:51:10;1.25;;;0.90;;
83404;SDS011;73331;48.168;20.776;2024-02-04T04:52:41;1.13;;;0.88;;
83404;SDS011;73331;48.168;20.776;2024-02-04T04:54:12;1.30;;;1.00;;
83404;SDS011;73331;48.168;20.776;2024-02-04T04:55:42;1.90;;;0.88;;
83404;SDS011;73331;48.168;20.776;2024-02-04T04:57:13;1.88;;;1.15;;
83404;SDS011;73331;48.168;20.776;2024-02-04T04:58:43;1.77;;;0.90;;
83404;SDS011;73331;48.168;20.776;2024-02-04T05:00:14;1.42;;;0.90;;
83404;SDS011;73331;48.168;20.776;2024-02-04T05:01:48;1.70;;;0.88;;
83404;SDS011;73331;48.168;20.776;2024-02-04T05:03:19;1.35;;;0.90;;
83404;SDS011;73331;48.168;20.776;2024-02-04T05:04:49;2.63;;;1.23;;
83404;SDS011;73331;48.168;20.776;2024-02-04T05:06:20;1.70;;;1.30;;
83404;SDS011;73331;48.168;20.776;2024-02-04T05:07:50;1.60;;;1.10;;
83404;SDS011;73331;48.168;20.776;2024-02-04T05:09:21;1.35;;;1.00;;
83404;SDS011;73331;48.168;20.776;2024-02-04T05:10:51;2.08;;;1.20;;
83404;SDS011;73331;48.168;20.776;2024-02-04T05:12:22;1.20;;;1.00;;
83404;SDS011;73331;48.168;20.776;2024-02-04T05:13:52;1.40;;;1.00;;
83404;SDS011;73331;48.168;20.776;2024-02-04T05:15:23;1.50;;;1.20;;
83404;SDS011;73331;48.168;20.776;2024-02-04T05:16:55;2.55;;;1.13;;
83404;SDS011;73331;48.168;20.776;2024-02-04T05:18:25;1.65;;;1.00;;
83404;SDS011;73331;48.168;20.776;2024-02-04T05:19:57;1.02;;;0.88;;
83404;SDS011;73331;48.168;20.776;2024-02-04T05:21:27;1.50;;;0.90;;
83404;SDS011;73331;48.168;20.776;2024-02-04T05:22:58;1.58;;;1.05;;
83404;SDS011;73331;48.168;20.776;2024-02-04T05:24:28;1.33;;;0.77;;
83404;SDS011;73331;48.168;20.776;2024-02-04T05:26:02;1.60;;;1.02;;
83404;SDS011;73331;48.168;20.776;2024-02-04T05:27:36;1.48;;;0.85;;
83404;SDS011;73331;48.168;20.776;2024-02-04T05:29:06;1.02;;;0.70;;
83404;SDS011;73331;48.168;20.776;2024-02-04T05:30:37;0.95;;;0.65;;
83404;SDS011;73331;48.168;20.776;2024-02-04T05:32:07;1.40;;;0.77;;
83404;SDS011;73331;48.168;20.776;2024-02-04T05:33:38;1.20;;;0.70;;
83404;SDS011;73331;48.168;20.776;2024-02-04T05:35:09;0.75;;;0.73;;
83404;SDS011;73331;48.168;20.776;2024-02-04T05:36:39;1.50;;;0.50;;
83404;SDS011;73331;48.168;20.776;2024-02-04T05:38:11;1.15;;;1.00;;
83404;SDS011;73331;48.168;20.776;2024-02-04T05:39:41;0.90;;;0.60;;
83404;SDS011;73331;48.168;20.776;2024-02-04T05:41:12;1.25;;;1.02;;
83404;SDS011;73331;48.168;20.776;2024-02-04T05:42:42;1.05;;;0.90;;
83404;SDS011;73331;48.168;20.776;2024-02-04T05:44:13;0.80;;;0.70;;
83404;SDS011;73331;48.168;20.776;2024-02-04T05:45:43;1.10;;;0.75;;
83404;SDS011;73331;48.168;20.776;2024-02-04T05:47:14;2.03;;;1.00;;
83404;SDS011;73331;48.168;20.776;2024-02-04T05:48:44;1.30;;;0.73;;
83404;SDS011;73331;48.168;20.776;2024-02-04T05:50:15;1.00;;;0.80;;
83404;SDS011;73331;48.168;20.776;2024-02-04T05:51:45;0.90;;;0.80;;
83404;SDS011;73331;48.168;20.776;2024-02-04T05:53:17;0.85;;;0.47;;
83404;SDS011;73331;48.168;20.776;2024-02-04T05:54:47;0.50;;;0.50;;
83404;SDS011;73331;48.168;20.776;2024-02-04T05:56:18;1.95;;;0.98;;
83404;SDS011;73331;48.168;20.776;2024-02-04T05:57:48;1.58;;;0.88;;
83404;SDS011;73331;48.168;20.776;2024-02-04T05:59:19;1.13;;;0.75;;
83404;SDS011;73331;48.168;20.776;2024-02-04T06:00:49;0.88;;;0.70;;
83404;SDS011;73331;48.168;20.776;2024-02-04T06:02:20;1.13;;;1.00;;
83404;SDS011;73331;48.168;20.776;2024-02-04T06:03:50;0.90;;;0.63;;
83404;SDS011;73331;48.168;20.776;2024-02-04T06:05:21;0.90;;;0.70;;
83404;SDS011;73331;48.168;20.776;2024-02-04T06:06:52;2.75;;;1.33;;
83404;SDS011;73331;48.168;20.776;2024-02-04T06:08:22;1.25;;;1.00;;
83404;SDS011;73331;48.168;20.776;2024-02-04T06:09:53;1.15;;;0.90;;
83404;SDS011;73331;48.168;20.776;2024-02-04T06:11:26;0.77;;;0.77;;
83404;SDS011;73331;48.168;20.776;2024-02-04T06:12:56;0.90;;;0.80;;
83404;SDS011;73331;48.168;20.776;2024-02-04T06:14:27;1.38;;;0.90;;
83404;SDS011;73331;48.168;20.776;2024-02-04T06:15:57;1.48;;;1.05;;
83404;SDS011;73331;48.168;20.776;2024-02-04T06:17:28;1.77;;;0.80;;
83404;SDS011;73331;48.168;20.776;2024-02-04T06:18:58;1.13;;;1.02;;
83404;SDS011;73331;48.168;20.776;2024-02-04T06:20:30;1.92;;;0.82;;
83404;SDS011;73331;48.168;20.776;2024-02-04T06:22:00;1.48;;;0.70;;
83404;SDS011;73331;48.168;20.776;2024-02-04T06:23:31;1.45;;;0.90;;
83404;SDS011;73331;48.168;20.776;2024-02-04T06:25:02;1.10;;;0.90;;
83404;SDS011;73331;48.168;20.776;2024-02-04T06:26:37;1.35;;;0.95;;
83404;SDS011;73331;48.168;20.776;2024-02-04T06:28:07;1.23;;;0.75;;
83404;SDS011;73331;48.168;20.776;2024-02-04T06:29:38;0.70;;;0.70;;
83404;SDS011;73331;48.168;20.776;2024-02-04T06:31:09;1.52;;;0.80;;
83404;SDS011;73331;48.168;20.776;2024-02-04T06:32:40;1.27;;;1.10;;
83404;SDS011;73331;48.168;20.776;2024-02-04T06:34:10;1.60;;;0.88;;
83404;SDS011;73331;48.168;20.776;2024-02-04T06:35:41;1.33;;;0.80;;
83404;SDS011;73331;48.168;20.776;2024-02-04T06:37:12;3.05;;;1.15;;
83404;SDS011;73331;48.168;20.776;2024-02-04T06:38:42;1.20;;;0.90;;
83404;SDS011;73331;48.168;20.776;2024-02-04T06:40:13;2.22;;;1.10;;
83404;SDS011;73331;48.168;20.776;2024-02-04T06:41:43;0.93;;;0.57;;
83404;SDS011;73331;48.168;20.776;2024-02-04T06:43:14;1.55;;;1.30;;
83404;SDS011;73331;48.168;20.776;2024-02-04T06:44:44;1.10;;;1.00;;
83404;SDS011;73331;48.168;20.776;2024-02-04T06:46:23;0.88;;;0.77;;
83404;SDS011;73331;48.168;20.776;2024-02-04T06:47:56;0.95;;;0.70;;
83404;SDS011;73331;48.168;20.776;2024-02-04T06:49:27;1.95;;;0.95;;
83404;SDS011;73331;48.168;20.776;2024-02-04T06:50:57;1.08;;;0.93;;
83404;SDS011;73331;48.168;20.776;2024-02-04T06:52:28;1.02;;;0.70;;
83404;SDS011;73331;48.168;20.776;2024-02-04T06:53:58;1.20;;;1.10;;
83404;SDS011;73331;48.168;20.776;2024-02-04T06:55:31;0.75;;;0.60;;
83404;SDS011;73331;48.168;20.776;2024-02-04T06:57:01;1.00;;;0.90;;
83404;SDS011;73331;48.168;20.776;2024-02-04T06:58:31;0.50;;;0.50;;
83404;SDS011;73331;48.168;20.776;2024-02-04T07:00:02;1.52;;;0.93;;
83404;SDS011;73331;48.168;20.776;2024-02-04T07:01:38;1.67;;;1.02;;
83404;SDS011;73331;48.168;20.776;2024-02-04T07:03:08;1.17;;;0.90;;
83404;SDS011;73331;48.168;20.776;2024-02-04T07:04:40;0.90;;;0.80;;
83404;SDS011;73331;48.168;20.776;2024-02-04T07:06:11;1.65;;;0.70;;
83404;SDS011;73331;48.168;20.776;2024-02-04T07:07:41;0.88;;;0.70;;
83404;SDS011;73331;48.168;20.776;2024-02-04T07:09:12;1.58;;;0.93;;
83404;SDS011;73331;48.168;20.776;2024-02-04T07:10:42;0.98;;;0.82;;
83404;SDS011;73331;48.168;20.776;2024-02-04T07:12:13;0.50;;;0.50;;
83404;SDS011;73331;48.168;20.776;2024-02-04T07:13:44;1.58;;;0.60;;
83404;SDS011;73331;48.168;20.776;2024-02-04T07:15:14;1.45;;;0.85;;
83404;SDS011;73331;48.168;20.776;2024-02-04T07:16:45;0.93;;;0.80;;
83404;SDS011;73331;48.168;20.776;2024-02-04T07:18:15;0.82;;;0.70;;
83404;SDS011;73331;48.168;20.776;2024-02-04T07:19:47;1.42;;;0.93;;
83404;SDS011;73331;48.168;20.776;2024-02-04T07:21:18;0.93;;;0.70;;
83404;SDS011;73331;48.168;20.776;2024-02-04T07:22:48;1.08;;;0.82;;
83404;SDS011;73331;48.168;20.776;2024-02-04T07:24:19;1.27;;;0.73;;
83404;SDS011;73331;48.168;20.776;2024-02-04T07:25:51;0.68;;;0.60;;
83404;SDS011;73331;48.168;20.776;2024-02-04T07:27:22;0.63;;;0.60;;
83404;SDS011;73331;48.168;20.776;2024-02-04T07:28:52;0.88;;;0.65;;
83404;SDS011;73331;48.168;20.776;2024-02-04T07:30:23;2.13;;;0.75;;
83404;SDS011;73331;48.168;20.776;2024-02-04T07:31:53;0.98;;;0.80;;
83404;SDS011;73331;48.168;20.776;2024-02-04T07:33:24;1.00;;;0.70;;
83404;SDS011;73331;48.168;20.776;2024-02-04T07:34:54;0.85;;;0.68;;
83404;SDS011;73331;48.168;20.776;2024-02-04T07:36:25;1.33;;;0.80;;
83404;SDS011;73331;48.168;20.776;2024-02-04T07:37:55;0.85;;;0.68;;
83404;SDS011;73331;48.168;20.776;2024-02-04T07:39:26;0.85;;;0.75;;
83404;SDS011;73331;48.168;20.776;2024-02-04T07:40:56;0.93;;;0.68;;
83404;SDS011;73331;48.168;20.776;2024-02-04T07:42:29;0.73;;;0.73;;
83404;SDS011;73331;48.168;20.776;2024-02-04T07:43:59;0.68;;;0.65;;
83404;SDS011;73331;48.168;20.776;2024-02-04T07:45:30;0.70;;;0.52;;
83404;SDS011;73331;48.168;20.776;2024-02-04T07:47:00;2.10;;;0.80;;
83404;SDS011;73331;48.168;20.776;2024-02-04T07:48:31;1.15;;;0.70;;
83404;SDS011;73331;48.168;20.776;2024-02-04T07:50:01;0.77;;;0.50;;
83404;SDS011;73331;48.168;20.776;2024-02-04T07:51:33;1.38;;;0.70;;
83404;SDS011;73331;48.168;20.776;2024-02-04T07:53:05;1.00;;;0.68;;
83404;SDS011;73331;48.168;20.776;2024-02-04T07:54:36;0.90;;;0.80;;
83404;SDS011;73331;48.168;20.776;2024-02-04T07:56:07;1.60;;;0.80;;
83404;SDS011;73331;48.168;20.776;2024-02-04T07:57:38;0.95;;;0.85;;
83404;SDS011;73331;48.168;20.776;2024-02-04T07:59:08;1.13;;;0.70;;
83404;SDS011;73331;48.168;20.776;2024-02-04T08:00:39;1.40;;;0.75;;
83404;SDS011;73331;48.168;20.776;2024-02-04T08:02:09;1.45;;;0.60;;
83404;SDS011;73331;48.168;20.776;2024-02-04T08:03:40;1.08;;;0.60;;
83404;SDS011;73331;48.168;20.776;2024-02-04T08:05:10;1.50;;;1.30;;
83404;SDS011;73331;48.168;20.776;2024-02-04T08:06:41;0.45;;;0.45;;
83404;SDS011;73331;48.168;20.776;2024-02-04T08:08:12;0.98;;;0.80;;
83404;SDS011;73331;48.168;20.776;2024-02-04T08:09:42;0.73;;;0.60;;
83404;SDS011;73331;48.168;20.776;2024-02-04T08:11:19;1.02;;;0.80;;
83404;SDS011;73331;48.168;20.776;2024-02-04T08:12:50;1.02;;;0.70;;
83404;SDS011;73331;48.168;20.776;2024-02-04T08:15:52;0.82;;;0.65;;
83404;SDS011;73331;48.168;20.776;2024-02-04T08:17:23;0.98;;;0.63;;
83404;SDS011;73331;48.168;20.776;2024-02-04T08:18:53;0.95;;;0.57;;
83404;SDS011;73331;48.168;20.776;2024-02-04T08:20:24;1.13;;;0.80;;
83404;SDS011;73331;48.168;20.776;2024-02-04T08:21:54;0.90;;;0.77;;
83404;SDS011;73331;48.168;20.776;2024-02-04T08:23:25;0.55;;;0.55;;
83404;SDS011;73331;48.168;20.776;2024-02-04T08:24:55;0.60;;;0.50;;
83404;SDS011;73331;48.168;20.776;2024-02-04T08:26:26;1.00;;;0.60;;
83404;SDS011;73331;48.168;20.776;2024-02-04T08:27:57;0.90;;;0.70;;
83404;SDS011;73331;48.168;20.776;2024-02-04T08:29:28;1.65;;;0.50;;
83404;SDS011;73331;48.168;20.776;2024-02-04T08:30:58;2.22;;;0.60;;
83404;SDS011;73331;48.168;20.776;2024-02-04T08:32:29;1.45;;;0.77;;
83404;SDS011;73331;48.168;20.776;2024-02-04T08:33:59;0.80;;;0.75;;
83404;SDS011;73331;48.168;20.776;2024-02-04T08:35:30;1.08;;;0.85;;
83404;SDS011;73331;48.168;20.776;2024-02-04T08:37:01;0.60;;;0.60;;
83404;SDS011;73331;48.168;20.776;2024-02-04T08:38:32;2.25;;;0.70;;
83404;SDS011;73331;48.168;20.776;2024-02-04T08:40:02;1.10;;;0.60;;
83404;SDS011;73331;48.168;20.776;2024-02-04T08:43:04;0.90;;;0.55;;
83404;SDS011;73331;48.168;20.776;2024-02-04T08:44:35;1.67;;;0.57;;
83404;SDS011;73331;48.168;20.776;2024-02-04T08:46:06;2.15;;;0.70;;
83404;SDS011;73331;48.168;20.776;2024-02-04T08:47:36;0.63;;;0.63;;
83404;SDS011;73331;48.168;20.776;2024-02-04T08:49:07;0.90;;;0.77;;
83404;SDS011;73331;48.168;20.776;2024-02-04T08:50:37;0.57;;;0.47;;
83404;SDS011;73331;48.168;20.776;2024-02-04T08:52:08;1.50;;;0.80;;
83404;SDS011;73331;48.168;20.776;2024-02-04T08:53:38;1.17;;;0.65;;
83404;SDS011;73331;48.168;20.776;2024-02-04T08:55:09;2.17;;;0.80;;
83404;SDS011;73331;48.168;20.776;2024-02-04T08:56:39;1.25;;;0.77;;
83404;SDS011;73331;48.168;20.776;2024-02-04T08:58:10;1.08;;;0.68;;
83404;SDS011;73331;48.168;20.776;2024-02-04T08:59:41;0.73;;;0.63;;
83404;SDS011;73331;48.168;20.776;2024-02-04T09:01:11;1.33;;;0.52;;
83404;SDS011;73331;48.168;20.776;2024-02-04T09:02:42;0.82;;;0.50;;
83404;SDS011;73331;48.168;20.776;2024-02-04T09:04:12;0.80;;;0.60;;
83404;SDS011;73331;48.168;20.776;2024-02-04T09:05:43;0.65;;;0.60;;